sensor_id;sensor_type;location;lat;lon;timestamp;temperature;humidity
64198;SHT31;50512;53.666;9.700;2024-02-21T00:01:14;8.84;98.86
64198;SHT31;50512;53.666;9.700;2024-02-21T00:03:41;8.84;98.89
64198;SHT31;50512;53.666;9.700;2024-02-21T00:06:07;8.82;99.07
64198;SHT31;50512;53.666;9.700;2024-02-21T00:08:34;8.87;98.92
64198;SHT31;50512;53.666;9.700;2024-02-21T00:11:01;8.87;98.82
64198;SHT31;50512;53.666;9.700;2024-02-21T00:13:28;8.88;99.07
64198;SHT31;50512;53.666;9.700;2024-02-21T00:15:54;8.91;99.11
64198;SHT31;50512;53.666;9.700;2024-02-21T00:18:21;8.87;99.23
64198;SHT31;50512;53.666;9.700;2024-02-21T00:20:47;8.85;99.13
64198;SHT31;50512;53.666;9.700;2024-02-21T00:23:14;8.89;99.25
64198;SHT31;50512;53.666;9.700;2024-02-21T00:25:40;8.88;99.39
64198;SHT31;50512;53.666;9.700;2024-02-21T00:28:08;8.91;99.26
64198;SHT31;50512;53.666;9.700;2024-02-21T00:30:34;8.91;99.21
64198;SHT31;50512;53.666;9.700;2024-02-21T00:33:03;8.88;99.32
64198;SHT31;50512;53.666;9.700;2024-02-21T00:35:30;8.92;99.23
64198;SHT31;50512;53.666;9.700;2024-02-21T00:37:56;8.92;99.33
64198;SHT31;50512;53.666;9.700;2024-02-21T00:40:24;8.92;99.28
64198;SHT31;50512;53.666;9.700;2024-02-21T00:42:51;8.92;99.31
64198;SHT31;50512;53.666;9.700;2024-02-21T00:45:19;8.95;99.34
64198;SHT31;50512;53.666;9.700;2024-02-21T00:47:45;8.93;99.42
64198;SHT31;50512;53.666;9.700;2024-02-21T00:50:12;8.98;99.21
64198;SHT31;50512;53.666;9.700;2024-02-21T00:52:38;8.95;99.31
64198;SHT31;50512;53.666;9.700;2024-02-21T00:55:06;8.97;99.40
64198;SHT31;50512;53.666;9.700;2024-02-21T00:57:32;8.99;99.37
64198;SHT31;50512;53.666;9.700;2024-02-21T00:59:59;8.99;99.41
64198;SHT31;50512;53.666;9.700;2024-02-21T01:02:26;8.99;99.50
64198;SHT31;50512;53.666;9.700;2024-02-21T01:04:53;9.01;99.58
64198;SHT31;50512;53.666;9.700;2024-02-21T01:07:19;9.01;99.49
64198;SHT31;50512;53.666;9.700;2024-02-21T01:09:46;9.01;99.75
64198;SHT31;50512;53.666;9.700;2024-02-21T01:12:12;8.99;99.87
64198;SHT31;50512;53.666;9.700;2024-02-21T01:14:38;8.97;99.99
64198;SHT31;50512;53.666;9.700;2024-02-21T01:17:05;8.98;99.99
64198;SHT31;50512;53.666;9.700;2024-02-21T01:19:33;8.93;99.99
64198;SHT31;50512;53.666;9.700;2024-02-21T01:22:00;8.95;99.99
64198;SHT31;50512;53.666;9.700;2024-02-21T01:24:26;8.92;99.99
64198;SHT31;50512;53.666;9.700;2024-02-21T01:26:53;8.93;99.99
64198;SHT31;50512;53.666;9.700;2024-02-21T01:29:19;8.88;99.99
64198;SHT31;50512;53.666;9.700;2024-02-21T01:31:45;8.87;99.99
64198;SHT31;50512;53.666;9.700;2024-02-21T01:34:12;8.82;99.99
64198;SHT31;50512;53.666;9.700;2024-02-21T01:36:40;8.81;99.99
64198;SHT31;50512;53.666;9.700;2024-02-21T01:39:07;8.77;99.99
64198;SHT31;50512;53.666;9.700;2024-02-21T01:41:33;8.74;99.99
64198;SHT31;50512;53.666;9.700;2024-02-21T01:44:00;8.71;99.99
64198;SHT31;50512;53.666;9.700;2024-02-21T01:46:26;8.67;99.99
64198;SHT31;50512;53.666;9.700;2024-02-21T01:48:54;8.64;99.99
64198;SHT31;50512;53.666;9.700;2024-02-21T01:51:20;8.60;99.99
64198;SHT31;50512;53.666;9.700;2024-02-21T01:53:49;8.60;99.99
64198;SHT31;50512;53.666;9.700;2024-02-21T01:56:17;8.59;99.99
64198;SHT31;50512;53.666;9.700;2024-02-21T01:58:44;8.56;99.99
64198;SHT31;50512;53.666;9.700;2024-02-21T02:01:11;8.57;99.99
64198;SHT31;50512;53.666;9.700;2024-02-21T02:03:38;8.53;99.99
64198;SHT31;50512;53.666;9.700;2024-02-21T02:06:05;8.53;99.99
64198;SHT31;50512;53.666;9.700;2024-02-21T02:08:32;8.50;99.99
64198;SHT31;50512;53.666;9.700;2024-02-21T02:11:00;8.44;99.99
64198;SHT31;50512;53.666;9.700;2024-02-21T02:13:27;8.43;99.99
64198;SHT31;50512;53.666;9.700;2024-02-21T02:15:54;8.40;99.99
64198;SHT31;50512;53.666;9.700;2024-02-21T02:18:20;8.37;99.99
64198;SHT31;50512;53.666;9.700;2024-02-21T02:20:47;8.40;99.99
64198;SHT31;50512;53.666;9.700;2024-02-21T02:23:20;8.40;99.99
64198;SHT31;50512;53.666;9.700;2024-02-21T02:25:47;8.46;99.99
64198;SHT31;50512;53.666;9.700;2024-02-21T02:28:14;8.49;99.99
64198;SHT31;50512;53.666;9.700;2024-02-21T02:30:39;8.49;99.99
64198;SHT31;50512;53.666;9.700;2024-02-21T02:33:06;8.49;99.99
64198;SHT31;50512;53.666;9.700;2024-02-21T02:35:33;8.51;99.99
64198;SHT31;50512;53.666;9.700;2024-02-21T02:38:00;8.51;99.99
64198;SHT31;50512;53.666;9.700;2024-02-21T02:40:28;8.54;99.99
64198;SHT31;50512;53.666;9.700;2024-02-21T02:42:54;8.54;99.99
64198;SHT31;50512;53.666;9.700;2024-02-21T02:45:22;8.59;99.99
64198;SHT31;50512;53.666;9.700;2024-02-21T02:47:51;8.61;99.99
64198;SHT31;50512;53.666;9.700;2024-02-21T02:50:19;8.64;99.99
64198;SHT31;50512;53.666;9.700;2024-02-21T02:52:45;8.67;99.99
64198;SHT31;50512;53.666;9.700;2024-02-21T02:55:12;8.70;99.99
64198;SHT31;50512;53.666;9.700;2024-02-21T02:57:40;8.71;99.99
64198;SHT31;50512;53.666;9.700;2024-02-21T03:00:07;8.70;99.99
64198;SHT31;50512;53.666;9.700;2024-02-21T03:02:35;8.72;99.99
64198;SHT31;50512;53.666;9.700;2024-02-21T03:05:11;8.74;99.99
64198;SHT31;50512;53.666;9.700;2024-02-21T03:07:38;8.75;99.99
64198;SHT31;50512;53.666;9.700;2024-02-21T03:10:05;8.75;99.99
64198;SHT31;50512;53.666;9.700;2024-02-21T03:12:31;8.75;99.99
64198;SHT31;50512;53.666;9.700;2024-02-21T03:14:59;8.77;99.99
64198;SHT31;50512;53.666;9.700;2024-02-21T03:17:25;8.78;99.99
64198;SHT31;50512;53.666;9.700;2024-02-21T03:19:53;8.82;99.99
64198;SHT31;50512;53.666;9.700;2024-02-21T03:22:20;8.82;99.99
64198;SHT31;50512;53.666;9.700;2024-02-21T03:24:47;8.84;99.99
64198;SHT31;50512;53.666;9.700;2024-02-21T03:27:13;8.89;99.99
64198;SHT31;50512;53.666;9.700;2024-02-21T03:29:40;8.85;99.99
64198;SHT31;50512;53.666;9.700;2024-02-21T03:32:07;8.87;99.99
64198;SHT31;50512;53.666;9.700;2024-02-21T03:34:34;8.85;99.99
64198;SHT31;50512;53.666;9.700;2024-02-21T03:37:01;8.87;99.99
64198;SHT31;50512;53.666;9.700;2024-02-21T03:39:30;8.87;99.99
64198;SHT31;50512;53.666;9.700;2024-02-21T03:41:57;8.87;99.99
64198;SHT31;50512;53.666;9.700;2024-02-21T03:44:25;8.85;99.99
64198;SHT31;50512;53.666;9.700;2024-02-21T03:46:52;8.87;99.99
64198;SHT31;50512;53.666;9.700;2024-02-21T03:49:20;8.87;99.99
64198;SHT31;50512;53.666;9.700;2024-02-21T03:51:46;8.89;99.99
64198;SHT31;50512;53.666;9.700;2024-02-21T03:54:12;8.87;99.99
64198;SHT31;50512;53.666;9.700;2024-02-21T03:56:39;8.88;99.99
64198;SHT31;50512;53.666;9.700;2024-02-21T03:59:06;8.85;99.99
64198;SHT31;50512;53.666;9.700;2024-02-21T04:01:33;8.81;99.99
64198;SHT31;50512;53.666;9.700;2024-02-21T04:03:59;8.79;99.99
64198;SHT31;50512;53.666;9.700;2024-02-21T04:06:27;8.77;99.99
64198;SHT31;50512;53.666;9.700;2024-02-21T04:08:54;8.78;99.99
64198;SHT31;50512;53.666;9.700;2024-02-21T04:11:20;8.74;99.99
64198;SHT31;50512;53.666;9.700;2024-02-21T04:13:47;8.72;99.99
64198;SHT31;50512;53.666;9.700;2024-02-21T04:16:15;8.74;99.99
64198;SHT31;50512;53.666;9.700;2024-02-21T04:18:41;8.72;99.99
64198;SHT31;50512;53.666;9.700;2024-02-21T04:21:08;8.70;99.99
64198;SHT31;50512;53.666;9.700;2024-02-21T04:23:36;8.64;99.99
64198;SHT31;50512;53.666;9.700;2024-02-21T04:26:03;8.65;99.99
64198;SHT31;50512;53.666;9.700;2024-02-21T04:28:29;8.63;99.99
64198;SHT31;50512;53.666;9.700;2024-02-21T04:30:56;8.64;99.99
64198;SHT31;50512;53.666;9.700;2024-02-21T04:33:22;8.63;99.99
64198;SHT31;50512;53.666;9.700;2024-02-21T04:35:48;8.63;99.99
64198;SHT31;50512;53.666;9.700;2024-02-21T04:38:15;8.63;99.99
64198;SHT31;50512;53.666;9.700;2024-02-21T04:40:43;8.61;99.99
64198;SHT31;50512;53.666;9.700;2024-02-21T04:43:09;8.60;99.99
64198;SHT31;50512;53.666;9.700;2024-02-21T04:45:36;8.60;99.99
64198;SHT31;50512;53.666;9.700;2024-02-21T04:48:02;8.59;99.99
64198;SHT31;50512;53.666;9.700;2024-02-21T04:50:29;8.61;99.99
64198;SHT31;50512;53.666;9.700;2024-02-21T04:52:55;8.59;99.99
64198;SHT31;50512;53.666;9.700;2024-02-21T04:55:22;8.63;99.99
64198;SHT31;50512;53.666;9.700;2024-02-21T04:57:49;8.61;99.99
64198;SHT31;50512;53.666;9.700;2024-02-21T05:00:16;8.59;99.99
64198;SHT31;50512;53.666;9.700;2024-02-21T05:02:42;8.56;99.99
64198;SHT31;50512;53.666;9.700;2024-02-21T05:05:08;8.60;99.99
64198;SHT31;50512;53.666;9.700;2024-02-21T05:07:35;8.59;99.99
64198;SHT31;50512;53.666;9.700;2024-02-21T05:10:01;8.57;99.99
64198;SHT31;50512;53.666;9.700;2024-02-21T05:12:28;8.59;99.99
64198;SHT31;50512;53.666;9.700;2024-02-21T05:14:56;8.59;99.99
64198;SHT31;50512;53.666;9.700;2024-02-21T05:17:23;8.59;99.99
64198;SHT31;50512;53.666;9.700;2024-02-21T05:19:49;8.57;99.99
64198;SHT31;50512;53.666;9.700;2024-02-21T05:22:15;8.53;99.99
64198;SHT31;50512;53.666;9.700;2024-02-21T05:24:42;8.54;99.99
64198;SHT31;50512;53.666;9.700;2024-02-21T05:27:08;8.56;99.99
64198;SHT31;50512;53.666;9.700;2024-02-21T05:29:35;8.57;99.99
64198;SHT31;50512;53.666;9.700;2024-02-21T05:32:03;8.54;99.99
64198;SHT31;50512;53.666;9.700;2024-02-21T05:34:30;8.56;99.99
64198;SHT31;50512;53.666;9.700;2024-02-21T05:36:56;8.60;99.99
64198;SHT31;50512;53.666;9.700;2024-02-21T05:39:25;8.59;99.99
64198;SHT31;50512;53.666;9.700;2024-02-21T05:41:51;8.60;99.99
64198;SHT31;50512;53.666;9.700;2024-02-21T05:44:18;8.56;99.99
64198;SHT31;50512;53.666;9.700;2024-02-21T05:46:46;8.57;99.99
64198;SHT31;50512;53.666;9.700;2024-02-21T05:49:13;8.54;99.99
64198;SHT31;50512;53.666;9.700;2024-02-21T05:51:40;8.53;99.99
64198;SHT31;50512;53.666;9.700;2024-02-21T05:54:07;8.54;99.99
64198;SHT31;50512;53.666;9.700;2024-02-21T05:56:33;8.57;99.99
64198;SHT31;50512;53.666;9.700;2024-02-21T05:59:00;8.56;99.99
64198;SHT31;50512;53.666;9.700;2024-02-21T06:01:27;8.54;99.99
64198;SHT31;50512;53.666;9.700;2024-02-21T06:03:53;8.56;99.99
64198;SHT31;50512;53.666;9.700;2024-02-21T06:06:21;8.57;99.99
64198;SHT31;50512;53.666;9.700;2024-02-21T06:08:48;8.59;99.99
64198;SHT31;50512;53.666;9.700;2024-02-21T06:11:14;8.57;99.99
64198;SHT31;50512;53.666;9.700;2024-02-21T06:13:41;8.59;99.99
64198;SHT31;50512;53.666;9.700;2024-02-21T06:16:07;8.57;99.99
64198;SHT31;50512;53.666;9.700;2024-02-21T06:18:35;8.57;99.99
64198;SHT31;50512;53.666;9.700;2024-02-21T06:21:02;8.57;99.99
64198;SHT31;50512;53.666;9.700;2024-02-21T06:23:29;8.60;99.99
64198;SHT31;50512;53.666;9.700;2024-02-21T06:25:56;8.56;99.99
64198;SHT31;50512;53.666;9.700;2024-02-21T06:28:22;8.59;99.99
64198;SHT31;50512;53.666;9.700;2024-02-21T06:30:49;8.63;99.99
64198;SHT31;50512;53.666;9.700;2024-02-21T06:33:15;8.61;99.99
64198;SHT31;50512;53.666;9.700;2024-02-21T06:35:41;8.63;99.99
64198;SHT31;50512;53.666;9.700;2024-02-21T06:38:10;8.63;99.99
64198;SHT31;50512;53.666;9.700;2024-02-21T06:40:38;8.64;99.99
64198;SHT31;50512;53.666;9.700;2024-02-21T06:43:05;8.65;99.99
64198;SHT31;50512;53.666;9.700;2024-02-21T06:45:32;8.70;99.99
64198;SHT31;50512;53.666;9.700;2024-02-21T06:47:58;8.64;99.99
64198;SHT31;50512;53.666;9.700;2024-02-21T06:50:25;8.67;99.99
64198;SHT31;50512;53.666;9.700;2024-02-21T06:52:51;8.68;99.99
64198;SHT31;50512;53.666;9.700;2024-02-21T06:55:18;8.68;99.99
64198;SHT31;50512;53.666;9.700;2024-02-21T06:57:45;8.64;99.99
64198;SHT31;50512;53.666;9.700;2024-02-21T07:00:14;8.61;99.99
64198;SHT31;50512;53.666;9.700;2024-02-21T07:02:41;8.65;99.99
64198;SHT31;50512;53.666;9.700;2024-02-21T07:05:08;8.64;99.99
64198;SHT31;50512;53.666;9.700;2024-02-21T07:07:34;8.63;99.99
64198;SHT31;50512;53.666;9.700;2024-02-21T07:10:01;8.61;99.99
64198;SHT31;50512;53.666;9.700;2024-02-21T07:12:27;8.61;99.99
64198;SHT31;50512;53.666;9.700;2024-02-21T07:14:55;8.59;99.99
64198;SHT31;50512;53.666;9.700;2024-02-21T07:17:21;8.61;99.99
64198;SHT31;50512;53.666;9.700;2024-02-21T07:19:48;8.59;99.99
64198;SHT31;50512;53.666;9.700;2024-02-21T07:22:14;8.57;99.99
64198;SHT31;50512;53.666;9.700;2024-02-21T07:24:41;8.57;99.99
64198;SHT31;50512;53.666;9.700;2024-02-21T07:27:07;8.57;99.99
64198;SHT31;50512;53.666;9.700;2024-02-21T07:29:34;8.57;99.99
64198;SHT31;50512;53.666;9.700;2024-02-21T07:32:02;8.53;99.99
64198;SHT31;50512;53.666;9.700;2024-02-21T07:34:28;8.56;99.99
64198;SHT31;50512;53.666;9.700;2024-02-21T07:36:55;8.56;99.99
64198;SHT31;50512;53.666;9.700;2024-02-21T07:39:22;8.50;99.99
64198;SHT31;50512;53.666;9.700;2024-02-21T07:41:48;8.57;99.99
64198;SHT31;50512;53.666;9.700;2024-02-21T07:44:15;8.61;99.99
64198;SHT31;50512;53.666;9.700;2024-02-21T07:46:41;8.61;99.99
64198;SHT31;50512;53.666;9.700;2024-02-21T07:49:09;8.64;99.99
64198;SHT31;50512;53.666;9.700;2024-02-21T07:51:36;8.64;99.99
64198;SHT31;50512;53.666;9.700;2024-02-21T07:54:02;8.65;99.99
64198;SHT31;50512;53.666;9.700;2024-02-21T07:56:29;8.67;99.99
64198;SHT31;50512;53.666;9.700;2024-02-21T07:58:56;8.74;99.99
64198;SHT31;50512;53.666;9.700;2024-02-21T08:01:22;8.77;99.99
64198;SHT31;50512;53.666;9.700;2024-02-21T08:03:49;8.75;99.99
64198;SHT31;50512;53.666;9.700;2024-02-21T08:06:17;8.78;99.99
64198;SHT31;50512;53.666;9.700;2024-02-21T08:08:43;8.75;99.99
64198;SHT31;50512;53.666;9.700;2024-02-21T08:11:09;8.84;99.99
64198;SHT31;50512;53.666;9.700;2024-02-21T08:13:36;8.85;99.99
64198;SHT31;50512;53.666;9.700;2024-02-21T08:16:03;8.87;99.99
64198;SHT31;50512;53.666;9.700;2024-02-21T08:18:29;8.92;99.99
64198;SHT31;50512;53.666;9.700;2024-02-21T08:20:56;8.92;99.99
64198;SHT31;50512;53.666;9.700;2024-02-21T08:23:24;8.91;99.99
64198;SHT31;50512;53.666;9.700;2024-02-21T08:25:50;8.97;99.99
64198;SHT31;50512;53.666;9.700;2024-02-21T08:28:17;8.99;99.99
64198;SHT31;50512;53.666;9.700;2024-02-21T08:30:43;9.04;99.99
64198;SHT31;50512;53.666;9.700;2024-02-21T08:33:13;9.14;99.99
64198;SHT31;50512;53.666;9.700;2024-02-21T08:35:39;9.09;99.99
64198;SHT31;50512;53.666;9.700;2024-02-21T08:38:06;9.05;99.99
64198;SHT31;50512;53.666;9.700;2024-02-21T08:40:33;9.05;99.99
64198;SHT31;50512;53.666;9.700;2024-02-21T08:43:00;9.06;99.99
64198;SHT31;50512;53.666;9.700;2024-02-21T08:45:26;9.01;99.99
64198;SHT31;50512;53.666;9.700;2024-02-21T08:47:53;8.99;99.99
64198;SHT31;50512;53.666;9.700;2024-02-21T08:50:19;9.02;99.99
64198;SHT31;50512;53.666;9.700;2024-02-21T08:52:46;9.02;99.99
64198;SHT31;50512;53.666;9.700;2024-02-21T08:55:12;9.02;99.99
64198;SHT31;50512;53.666;9.700;2024-02-21T08:57:40;9.09;99.99
64198;SHT31;50512;53.666;9.700;2024-02-21T09:00:07;9.19;99.99
64198;SHT31;50512;53.666;9.700;2024-02-21T09:02:36;9.19;99.99
64198;SHT31;50512;53.666;9.700;2024-02-21T09:05:04;9.26;99.99
64198;SHT31;50512;53.666;9.700;2024-02-21T09:07:31;9.32;99.99
64198;SHT31;50512;53.666;9.700;2024-02-21T09:09:58;9.43;99.99
64198;SHT31;50512;53.666;9.700;2024-02-21T09:12:24;9.44;99.99
64198;SHT31;50512;53.666;9.700;2024-02-21T09:14:52;9.48;99.99
64198;SHT31;50512;53.666;9.700;2024-02-21T09:17:18;9.40;99.99
64198;SHT31;50512;53.666;9.700;2024-02-21T09:19:45;9.39;99.99
64198;SHT31;50512;53.666;9.700;2024-02-21T09:22:12;9.43;99.99
64198;SHT31;50512;53.666;9.700;2024-02-21T09:24:38;9.37;99.99
64198;SHT31;50512;53.666;9.700;2024-02-21T09:27:05;9.25;99.99
64198;SHT31;50512;53.666;9.700;2024-02-21T09:29:32;9.23;99.99
64198;SHT31;50512;53.666;9.700;2024-02-21T09:32:00;9.64;99.99
64198;SHT31;50512;53.666;9.700;2024-02-21T09:34:28;9.65;99.99
64198;SHT31;50512;53.666;9.700;2024-02-21T09:36:54;9.50;99.99
64198;SHT31;50512;53.666;9.700;2024-02-21T09:39:21;9.40;99.99
64198;SHT31;50512;53.666;9.700;2024-02-21T09:41:50;9.25;99.99
64198;SHT31;50512;53.666;9.700;2024-02-21T09:44:19;9.19;99.99
64198;SHT31;50512;53.666;9.700;2024-02-21T09:46:52;9.08;99.99
64198;SHT31;50512;53.666;9.700;2024-02-21T09:49:29;9.12;99.99
64198;SHT31;50512;53.666;9.700;2024-02-21T09:51:57;9.11;99.99
64198;SHT31;50512;53.666;9.700;2024-02-21T09:54:28;9.15;99.99
64198;SHT31;50512;53.666;9.700;2024-02-21T09:56:54;9.15;99.99
64198;SHT31;50512;53.666;9.700;2024-02-21T09:59:22;8.99;99.99
64198;SHT31;50512;53.666;9.700;2024-02-21T10:01:50;9.05;99.99
64198;SHT31;50512;53.666;9.700;2024-02-21T10:04:16;9.06;99.99
64198;SHT31;50512;53.666;9.700;2024-02-21T10:06:45;9.02;99.99
64198;SHT31;50512;53.666;9.700;2024-02-21T10:09:20;9.02;99.99
64198;SHT31;50512;53.666;9.700;2024-02-21T10:11:47;8.89;99.99
64198;SHT31;50512;53.666;9.700;2024-02-21T10:14:13;8.92;99.99
64198;SHT31;50512;53.666;9.700;2024-02-21T10:16:41;8.85;99.99
64198;SHT31;50512;53.666;9.700;2024-02-21T10:19:16;8.75;99.99
64198;SHT31;50512;53.666;9.700;2024-02-21T10:21:42;8.70;99.99
64198;SHT31;50512;53.666;9.700;2024-02-21T10:24:12;8.77;99.99
64198;SHT31;50512;53.666;9.700;2024-02-21T10:26:38;8.79;99.99
64198;SHT31;50512;53.666;9.700;2024-02-21T10:29:04;8.88;99.99
64198;SHT31;50512;53.666;9.700;2024-02-21T10:31:31;8.95;99.99
64198;SHT31;50512;53.666;9.700;2024-02-21T10:33:59;9.01;99.99
64198;SHT31;50512;53.666;9.700;2024-02-21T10:36:28;9.02;99.99
64198;SHT31;50512;53.666;9.700;2024-02-21T10:38:55;9.15;99.99
64198;SHT31;50512;53.666;9.700;2024-02-21T10:41:23;9.20;99.99
64198;SHT31;50512;53.666;9.700;2024-02-21T10:43:52;9.22;99.99
64198;SHT31;50512;53.666;9.700;2024-02-21T10:46:21;9.26;99.99
64198;SHT31;50512;53.666;9.700;2024-02-21T10:48:58;9.29;99.99
64198;SHT31;50512;53.666;9.700;2024-02-21T10:51:30;9.23;99.99
64198;SHT31;50512;53.666;9.700;2024-02-21T10:54:10;9.25;99.99
64198;SHT31;50512;53.666;9.700;2024-02-21T10:56:41;9.27;99.99
64198;SHT31;50512;53.666;9.700;2024-02-21T10:59:08;9.32;99.99
64198;SHT31;50512;53.666;9.700;2024-02-21T11:01:34;9.30;99.99
64198;SHT31;50512;53.666;9.700;2024-02-21T11:04:03;9.32;99.99
64198;SHT31;50512;53.666;9.700;2024-02-21T11:06:31;9.33;99.99
64198;SHT31;50512;53.666;9.700;2024-02-21T11:09:00;9.27;99.99
64198;SHT31;50512;53.666;9.700;2024-02-21T11:11:28;9.32;99.99
64198;SHT31;50512;53.666;9.700;2024-02-21T11:14:05;9.32;99.99
64198;SHT31;50512;53.666;9.700;2024-02-21T11:16:36;9.29;99.99
64198;SHT31;50512;53.666;9.700;2024-02-21T11:19:05;9.30;99.99
64198;SHT31;50512;53.666;9.700;2024-02-21T11:21:33;9.29;99.99
64198;SHT31;50512;53.666;9.700;2024-02-21T11:24:00;9.22;99.99
64198;SHT31;50512;53.666;9.700;2024-02-21T11:26:27;9.23;99.99
64198;SHT31;50512;53.666;9.700;2024-02-21T11:28:58;9.23;99.99
64198;SHT31;50512;53.666;9.700;2024-02-21T11:31:27;9.18;99.99
64198;SHT31;50512;53.666;9.700;2024-02-21T11:33:53;9.12;99.99
64198;SHT31;50512;53.666;9.700;2024-02-21T11:36:24;9.18;99.99
64198;SHT31;50512;53.666;9.700;2024-02-21T11:38:51;9.16;99.99
64198;SHT31;50512;53.666;9.700;2024-02-21T11:41:18;9.14;99.99
64198;SHT31;50512;53.666;9.700;2024-02-21T11:43:46;9.16;99.99
64198;SHT31;50512;53.666;9.700;2024-02-21T11:46:13;9.14;99.99
64198;SHT31;50512;53.666;9.700;2024-02-21T11:48:42;9.05;99.99
64198;SHT31;50512;53.666;9.700;2024-02-21T11:51:10;9.12;99.99
64198;SHT31;50512;53.666;9.700;2024-02-21T11:53:36;9.06;99.99
64198;SHT31;50512;53.666;9.700;2024-02-21T11:56:03;9.05;99.99
64198;SHT31;50512;53.666;9.700;2024-02-21T11:58:30;9.05;99.99
64198;SHT31;50512;53.666;9.700;2024-02-21T12:00:56;9.01;99.99
64198;SHT31;50512;53.666;9.700;2024-02-21T12:03:23;8.98;99.99
64198;SHT31;50512;53.666;9.700;2024-02-21T12:05:53;9.01;99.99
64198;SHT31;50512;53.666;9.700;2024-02-21T12:08:21;9.02;99.99
64198;SHT31;50512;53.666;9.700;2024-02-21T12:10:48;9.02;99.99
64198;SHT31;50512;53.666;9.700;2024-02-21T12:13:16;9.06;99.99
64198;SHT31;50512;53.666;9.700;2024-02-21T12:15:47;9.15;99.99
64198;SHT31;50512;53.666;9.700;2024-02-21T12:18:14;9.14;99.99
64198;SHT31;50512;53.666;9.700;2024-02-21T12:20:40;9.14;99.99
64198;SHT31;50512;53.666;9.700;2024-02-21T12:23:10;9.25;99.99
64198;SHT31;50512;53.666;9.700;2024-02-21T12:25:36;9.75;98.31
64198;SHT31;50512;53.666;9.700;2024-02-21T12:28:05;10.15;97.74
64198;SHT31;50512;53.666;9.700;2024-02-21T12:30:32;9.39;98.97
64198;SHT31;50512;53.666;9.700;2024-02-21T12:33:00;9.20;99.99
64198;SHT31;50512;53.666;9.700;2024-02-21T12:35:27;9.01;99.99
64198;SHT31;50512;53.666;9.700;2024-02-21T12:37:53;9.01;99.99
64198;SHT31;50512;53.666;9.700;2024-02-21T12:40:21;8.97;99.99
64198;SHT31;50512;53.666;9.700;2024-02-21T12:42:47;8.99;99.99
64198;SHT31;50512;53.666;9.700;2024-02-21T12:45:14;8.93;99.99
64198;SHT31;50512;53.666;9.700;2024-02-21T12:47:41;8.93;99.99
64198;SHT31;50512;53.666;9.700;2024-02-21T12:50:08;8.89;99.99
64198;SHT31;50512;53.666;9.700;2024-02-21T12:52:35;8.87;99.99
64198;SHT31;50512;53.666;9.700;2024-02-21T12:55:01;8.82;99.99
64198;SHT31;50512;53.666;9.700;2024-02-21T12:57:29;8.82;99.99
64198;SHT31;50512;53.666;9.700;2024-02-21T12:59:56;8.79;99.99
64198;SHT31;50512;53.666;9.700;2024-02-21T13:02:22;8.81;99.99
64198;SHT31;50512;53.666;9.700;2024-02-21T13:04:48;8.85;99.99
64198;SHT31;50512;53.666;9.700;2024-02-21T13:07:15;8.88;99.99
64198;SHT31;50512;53.666;9.700;2024-02-21T13:09:41;8.88;99.99
64198;SHT31;50512;53.666;9.700;2024-02-21T13:12:08;8.97;99.99
64198;SHT31;50512;53.666;9.700;2024-02-21T13:14:36;9.09;99.99
64198;SHT31;50512;53.666;9.700;2024-02-21T13:17:04;9.08;99.99
64198;SHT31;50512;53.666;9.700;2024-02-21T13:19:31;9.09;99.99
64198;SHT31;50512;53.666;9.700;2024-02-21T13:21:57;9.19;99.99
64198;SHT31;50512;53.666;9.700;2024-02-21T13:24:23;9.23;99.99
64198;SHT31;50512;53.666;9.700;2024-02-21T13:26:50;9.25;99.99
64198;SHT31;50512;53.666;9.700;2024-02-21T13:29:16;9.29;99.78
64198;SHT31;50512;53.666;9.700;2024-02-21T13:31:44;9.26;99.37
64198;SHT31;50512;53.666;9.700;2024-02-21T13:34:11;9.27;99.50
64198;SHT31;50512;53.666;9.700;2024-02-21T13:36:37;9.27;99.08
64198;SHT31;50512;53.666;9.700;2024-02-21T13:39:03;9.29;99.45
64198;SHT31;50512;53.666;9.700;2024-02-21T13:41:31;9.29;98.81
64198;SHT31;50512;53.666;9.700;2024-02-21T13:43:58;9.32;99.40
64198;SHT31;50512;53.666;9.700;2024-02-21T13:46:25;9.29;98.09
64198;SHT31;50512;53.666;9.700;2024-02-21T13:49:03;9.36;98.57
64198;SHT31;50512;53.666;9.700;2024-02-21T13:51:29;9.36;98.38
64198;SHT31;50512;53.666;9.700;2024-02-21T13:53:56;9.40;97.96
64198;SHT31;50512;53.666;9.700;2024-02-21T13:56:22;9.39;98.18
64198;SHT31;50512;53.666;9.700;2024-02-21T13:58:49;9.43;98.25
64198;SHT31;50512;53.666;9.700;2024-02-21T14:01:15;9.46;98.36
64198;SHT31;50512;53.666;9.700;2024-02-21T14:03:42;9.44;98.16
64198;SHT31;50512;53.666;9.700;2024-02-21T14:06:10;9.44;97.93
64198;SHT31;50512;53.666;9.700;2024-02-21T14:08:37;9.44;98.23
64198;SHT31;50512;53.666;9.700;2024-02-21T14:11:04;9.47;97.97
64198;SHT31;50512;53.666;9.700;2024-02-21T14:13:31;9.48;98.12
64198;SHT31;50512;53.666;9.700;2024-02-21T14:15:58;9.47;97.39
64198;SHT31;50512;53.666;9.700;2024-02-21T14:18:24;9.46;97.75
64198;SHT31;50512;53.666;9.700;2024-02-21T14:20:51;9.48;97.87
64198;SHT31;50512;53.666;9.700;2024-02-21T14:23:19;9.51;97.60
64198;SHT31;50512;53.666;9.700;2024-02-21T14:25:46;9.51;97.39
64198;SHT31;50512;53.666;9.700;2024-02-21T14:28:12;9.54;97.48
64198;SHT31;50512;53.666;9.700;2024-02-21T14:30:39;9.61;97.32
64198;SHT31;50512;53.666;9.700;2024-02-21T14:33:05;9.55;96.12
64198;SHT31;50512;53.666;9.700;2024-02-21T14:35:33;9.64;96.73
64198;SHT31;50512;53.666;9.700;2024-02-21T14:37:59;9.64;96.21
64198;SHT31;50512;53.666;9.700;2024-02-21T14:40:27;9.70;96.75
64198;SHT31;50512;53.666;9.700;2024-02-21T14:42:55;9.67;96.08
64198;SHT31;50512;53.666;9.700;2024-02-21T14:45:21;9.69;95.77
64198;SHT31;50512;53.666;9.700;2024-02-21T14:47:48;9.65;95.18
64198;SHT31;50512;53.666;9.700;2024-02-21T14:50:15;9.63;94.79
64198;SHT31;50512;53.666;9.700;2024-02-21T14:52:41;9.64;94.50
64198;SHT31;50512;53.666;9.700;2024-02-21T14:55:09;9.63;94.64
64198;SHT31;50512;53.666;9.700;2024-02-21T14:57:39;9.64;93.71
64198;SHT31;50512;53.666;9.700;2024-02-21T15:00:07;9.63;93.59
64198;SHT31;50512;53.666;9.700;2024-02-21T15:02:34;9.60;93.59
64198;SHT31;50512;53.666;9.700;2024-02-21T15:05:01;9.58;93.27
64198;SHT31;50512;53.666;9.700;2024-02-21T15:07:27;9.58;93.42
64198;SHT31;50512;53.666;9.700;2024-02-21T15:09:54;9.51;93.67
64198;SHT31;50512;53.666;9.700;2024-02-21T15:12:20;9.54;92.91
64198;SHT31;50512;53.666;9.700;2024-02-21T15:14:49;9.53;93.45
64198;SHT31;50512;53.666;9.700;2024-02-21T15:17:16;9.51;93.04
64198;SHT31;50512;53.666;9.700;2024-02-21T15:19:43;9.48;93.00
64198;SHT31;50512;53.666;9.700;2024-02-21T15:22:10;9.47;92.83
64198;SHT31;50512;53.666;9.700;2024-02-21T15:24:37;9.48;92.53
64198;SHT31;50512;53.666;9.700;2024-02-21T15:27:04;9.46;92.79
64198;SHT31;50512;53.666;9.700;2024-02-21T15:29:31;9.44;92.63
64198;SHT31;50512;53.666;9.700;2024-02-21T15:31:58;9.44;92.44
64198;SHT31;50512;53.666;9.700;2024-02-21T15:34:25;9.34;93.15
64198;SHT31;50512;53.666;9.700;2024-02-21T15:36:51;9.37;92.77
64198;SHT31;50512;53.666;9.700;2024-02-21T15:39:18;9.37;92.39
64198;SHT31;50512;53.666;9.700;2024-02-21T15:41:44;9.37;93.13
64198;SHT31;50512;53.666;9.700;2024-02-21T15:44:11;9.36;92.23